Time;durP1;ratioP1;P1;durP2;ratioP2;P2;SDS_P1;SDS_P2;PMS_P1;PMS_P2;Temp;Humidity;BMP_temperature;BMP_pressure;BME280_temperature;BME280_humidity;BME280_pressure;Samples;Min_cycle;Max_cycle;Signal;HPM_P1;HPM_P2
2022/06/09 00:01:39;;;;;;;13.25;4.57;;;;;;;13.32;94.92;100739.44;5078331;28;20369;-70
2022/06/09 00:04:20;;;;;;;14.05;5.20;;;;;;;13.36;95.07;100740.78;5086295;28;20016;-70
2022/06/09 00:06:56;;;;;;;11.30;4.60;;;;;;;13.39;94.61;100730.09;5052821;28;20141;-70
2022/06/09 00:09:29;;;;;;;13.43;5.10;;;;;;;13.36;95.18;100735.56;5084010;28;20031;-70
2022/06/09 00:11:55;;;;;;;15.23;5.10;;;;;;;13.38;95.07;100733.66;5067523;28;20097;-70
2022/06/09 00:14:21;;;;;;;14.88;5.40;;;;;;;13.28;95.71;100739.72;5083833;28;20024;-70
2022/06/09 00:16:47;;;;;;;13.18;4.97;;;;;;;13.36;95.51;100740.78;5066601;28;20024;-70
2022/06/09 00:19:16;;;;;;;12.07;4.75;;;;;;;13.38;95.18;100733.66;5076290;28;20134;-70
2022/06/09 00:21:42;;;;;;;13.65;5.30;;;;;;;13.35;95.79;100741.75;5067486;28;20032;-70
2022/06/09 00:24:08;;;;;;;14.70;5.53;;;;;;;13.26;95.77;100726.03;5056840;28;20094;-70
2022/06/09 00:26:33;;;;;;;13.93;4.90;;;;;;;13.36;95.53;100740.78;5085654;28;20027;-70
2022/06/09 00:28:59;;;;;;;15.57;5.65;;;;;;;13.24;95.88;100727.94;5081333;28;20017;-70
2022/06/09 00:31:24;;;;;;;16.95;5.70;;;;;;;13.31;96.09;100740.41;5078136;28;20520;-70
2022/06/09 00:33:50;;;;;;;16.75;5.57;;;;;;;13.22;95.85;100735.09;5083552;28;20066;-70
2022/06/09 00:36:16;;;;;;;12.27;5.45;;;;;;;13.23;96.41;100741.94;5086037;28;20042;-70
2022/06/09 00:38:42;;;;;;;14.85;5.07;;;;;;;13.26;96.14;100740.84;5089893;28;20368;-71
2022/06/09 00:41:07;;;;;;;18.10;5.80;;;;;;;13.29;96.17;100745.75;5085509;28;20031;-70
2022/06/09 00:43:33;;;;;;;15.25;5.25;;;;;;;13.29;95.80;100751.78;5082777;28;20103;-70
2022/06/09 00:46:23;;;;;;;14.73;5.35;;;;;;;13.31;96.20;100748.22;5084347;28;20052;-70
2022/06/09 00:48:57;;;;;;;18.13;6.00;;;;;;;13.16;96.31;100756.47;5082245;28;20024;-70
2022/06/09 00:51:26;;;;;;;13.98;5.50;;;;;;;13.19;96.01;100756.19;5088433;28;20020;-70
2022/06/09 00:53:57;;;;;;;15.98;5.85;;;;;;;13.19;96.22;100758.81;5086782;28;20085;-70
2022/06/09 00:56:24;;;;;;;16.48;6.43;;;;;;;13.03;96.04;100729.94;5086216;28;20032;-70
2022/06/09 00:58:52;;;;;;;14.27;5.55;;;;;;;13.09;95.92;100758.03;5072581;28;20104;-69
2022/06/09 01:01:20;;;;;;;15.90;5.70;;;;;;;13.02;95.54;100749.16;5087137;28;20538;-69
2022/06/09 01:03:49;;;;;;;14.13;4.93;;;;;;;13.07;95.88;100762.53;5064298;28;20475;-69
2022/06/09 01:06:31;;;;;;;15.82;5.93;;;;;;;13.13;95.59;100766.34;5087855;28;20032;-69
2022/06/09 01:08:58;;;;;;;15.18;6.03;;;;;;;13.08;95.39;100765.97;5084206;28;20020;-70
2022/06/09 01:11:24;;;;;;;14.57;5.57;;;;;;;13.01;95.07;100763.09;5086703;28;20044;-70
2022/06/09 01:13:50;;;;;;;19.17;5.82;;;;;;;12.98;95.13;100769.44;5086818;28;20028;-70
2022/06/09 01:16:27;;;;;;;15.88;5.78;;;;;;;13.00;95.69;100770.09;5088154;28;20034;-69
2022/06/09 01:19:34;;;;;;;16.00;5.63;;;;;;;13.07;95.26;100772.94;5077820;28;20039;-70
2022/06/09 01:22:14;;;;;;;15.23;5.55;;;;;;;12.95;95.23;100779.28;4983301;28;20391;-69
2022/06/09 01:25:03;;;;;;;17.65;5.93;;;;;;;12.96;95.51;100780.94;5003984;28;20034;-70
2022/06/09 01:27:34;;;;;;;;;;;;;;;13.10;94.90;100777.88;4997514;28;20080;-70
2022/06/09 01:30:14;;;;;;;20.23;5.82;;;;;;;12.89;95.05;100788.50;4987208;28;19913;-70
2022/06/09 01:32:51;;;;;;;17.08;5.90;;;;;;;12.83;95.50;100786.44;4998150;28;20512;-70
2022/06/09 01:35:35;;;;;;;17.83;5.65;;;;;;;12.88;95.98;100778.22;5005618;28;20125;-70
2022/06/09 01:38:00;;;;;;;17.63;6.07;;;;;;;12.73;95.23;100776.06;5004454;28;20049;-70
2022/06/09 01:40:28;;;;;;;16.55;5.47;;;;;;;12.76;95.09;100780.16;4994826;28;20065;-69
2022/06/09 01:42:56;;;;;;;16.77;5.78;;;;;;;12.76;94.97;100786.19;5002743;28;20034;-70
2022/06/09 01:45:26;;;;;;;19.77;5.93;;;;;;;12.77;95.24;100781.81;4999147;28;20044;-69
2022/06/09 01:48:07;;;;;;;20.45;6.07;;;;;;;12.81;95.35;100787.56;4998239;28;20034;-70
2022/06/09 01:50:43;;;;;;;18.15;6.18;;;;;;;12.71;95.40;100798.81;5004757;28;20026;-70
2022/06/09 01:53:22;;;;;;;17.48;6.00;;;;;;;12.73;95.90;100796.91;5053428;28;20047;-69
2022/06/09 01:55:55;;;;;;;19.08;6.22;;;;;;;12.62;95.34;100791.84;5082568;28;20027;-70
2022/06/09 01:58:26;;;;;;;18.80;6.60;;;;;;;12.53;95.80;100784.88;5068206;28;20024;-69
2022/06/09 02:00:53;;;;;;;17.60;6.47;;;;;;;12.63;95.34;100801.28;5067506;28;20382;-70
2022/06/09 02:03:24;;;;;;;18.80;6.07;;;;;;;12.60;95.63;100796.34;5087069;28;20027;-70
2022/06/09 02:05:53;;;;;;;18.92;6.47;;;;;;;12.62;95.61;100802.25;5082385;28;20452;-70
2022/06/09 02:08:21;;;;;;;17.33;6.45;;;;;;;12.66;95.68;100802.78;5061226;28;20051;-70
2022/06/09 02:10:53;;;;;;;18.08;6.47;;;;;;;12.60;95.79;100801.56;5077752;28;20500;-70
2022/06/09 02:13:27;;;;;;;19.48;6.28;;;;;;;12.66;95.61;100805.38;5051400;28;20043;-70
2022/06/09 02:15:58;;;;;;;17.65;6.40;;;;;;;12.61;95.72;100802.38;5064925;28;20032;-71
2022/06/09 02:18:26;;;;;;;17.60;6.22;;;;;;;12.58;96.24;100813.06;5079267;28;20142;-69
2022/06/09 02:20:56;;;;;;;17.45;6.10;;;;;;;12.62;96.05;100825.69;5086711;28;20024;-68
2022/06/09 02:23:22;;;;;;;17.55;6.38;;;;;;;12.60;96.12;100816.34;5083733;28;20024;-68
2022/06/09 02:25:48;;;;;;;18.80;5.57;;;;;;;12.65;95.49;100824.56;5083766;28;20024;-69
2022/06/09 02:28:13;;;;;;;18.45;6.15;;;;;;;12.65;95.66;100827.97;5081291;28;20033;-69
2022/06/09 02:30:39;;;;;;;17.40;5.93;;;;;;;12.66;95.87;100826.19;5068525;28;20506;-69
2022/06/09 02:33:05;;;;;;;19.95;6.93;;;;;;;12.59;95.79;100836.34;5081680;28;20028;-70
2022/06/09 02:35:30;;;;;;;18.42;7.03;;;;;;;12.55;96.19;100829.75;5081537;28;20032;-69
2022/06/09 02:37:56;;;;;;;18.83;6.07;;;;;;;12.65;95.97;100835.78;5066963;28;20024;-69
2022/06/09 02:40:22;;;;;;;16.17;6.35;;;;;;;12.65;95.69;100840.19;5086329;28;20055;-69
2022/06/09 02:42:47;;;;;;;18.52;6.47;;;;;;;12.67;96.21;100833.03;5074211;28;20111;-70
2022/06/09 02:45:14;;;;;;;17.48;6.47;;;;;;;12.66;96.37;100847.84;5076734;28;20059;-70
2022/06/09 02:47:40;;;;;;;21.52;7.63;;;;;;;12.59;96.33;100838.94;5063699;28;20405;-70
2022/06/09 02:50:06;;;;;;;17.17;6.47;;;;;;;12.66;96.61;100847.84;5082406;28;20046;-70
2022/06/09 02:52:32;;;;;;;19.45;6.93;;;;;;;12.61;96.67;100844.81;5062557;28;20077;-70
2022/06/09 02:54:57;;;;;;;17.95;6.90;;;;;;;12.60;96.85;100853.59;5079910;28;20028;-69
2022/06/09 02:57:23;;;;;;;19.33;7.05;;;;;;;12.61;97.09;100863.03;5077378;28;20032;-70
2022/06/09 02:59:50;;;;;;;16.73;7.07;;;;;;;12.62;96.87;100862.09;5077266;28;20043;-70
2022/06/09 03:02:16;;;;;;;17.75;7.05;;;;;;;12.62;96.68;100851.69;5079615;28;20031;-70
2022/06/09 03:04:42;;;;;;;16.08;6.97;;;;;;;12.61;96.62;100860.44;5083150;28;20148;-69
2022/06/09 03:07:07;;;;;;;18.85;6.45;;;;;;;12.59;97.07;100862.38;5072050;28;20028;-70
2022/06/09 03:09:33;;;;;;;21.35;7.63;;;;;;;12.64;96.93;100865.38;5082843;28;20028;-70
2022/06/09 03:11:58;;;;;;;18.90;7.93;;;;;;;12.65;97.02;100872.22;5086202;28;20138;-70
2022/06/09 03:14:23;;;;;;;19.15;7.53;;;;;;;12.63;96.74;100876.75;5081216;28;20369;-70
2022/06/09 03:16:50;;;;;;;24.60;8.05;;;;;;;12.65;97.29;100884.41;5069129;28;20024;-69
2022/06/09 03:19:16;;;;;;;22.98;8.00;;;;;;;12.57;97.23;100873.88;5077786;28;20028;-70
2022/06/09 03:21:41;;;;;;;21.85;8.38;;;;;;;12.61;97.49;100891.66;5078276;28;20024;-69
2022/06/09 03:24:07;;;;;;;23.27;9.07;;;;;;;12.61;97.23;100876.03;5084085;28;20060;-70
2022/06/09 03:26:32;;;;;;;24.92;9.00;;;;;;;12.64;97.55;100895.78;5069252;28;20032;-70
2022/06/09 03:28:58;;;;;;;19.77;8.10;;;;;;;12.70;96.98;100905.66;5073703;28;20468;-70
2022/06/09 03:31:23;;;;;;;23.67;9.10;;;;;;;12.63;97.44;100900.16;5080383;28;20021;-69
2022/06/09 03:33:49;;;;;;;22.20;9.45;;;;;;;12.68;97.71;100913.59;5076513;28;20059;-69
2022/06/09 03:36:15;;;;;;;22.20;9.90;;;;;;;12.68;97.80;100908.38;5083584;28;20147;-69
2022/06/09 03:38:40;;;;;;;24.40;9.95;;;;;;;12.71;97.66;100915.09;5069173;28;20396;-70
2022/06/09 03:41:07;;;;;;;25.73;10.43;;;;;;;12.66;98.60;100918.09;5075740;28;20492;-70
2022/06/09 03:43:34;;;;;;;24.98;11.05;;;;;;;12.76;97.96;100921.53;5065109;28;20023;-70
2022/06/09 03:46:00;;;;;;;24.83;10.85;;;;;;;12.76;98.47;100920.72;5075193;28;20452;-70
2022/06/09 03:48:26;;;;;;;25.98;10.73;;;;;;;12.80;98.66;100929.91;5065136;28;20027;-69
2022/06/09 03:50:51;;;;;;;25.13;11.07;;;;;;;12.77;99.17;100933.56;5073868;28;20029;-70
2022/06/09 03:53:16;;;;;;;27.55;11.18;;;;;;;12.74;99.68;100928.66;5067336;28;20028;-70
2022/06/09 03:55:42;;;;;;;26.83;11.85;;;;;;;12.75;99.40;100929.47;5054022;28;20020;-70
2022/06/09 03:58:07;;;;;;;27.48;12.18;;;;;;;12.82;99.30;100940.16;5070665;28;20039;-70
2022/06/09 04:00:33;;;;;;;24.75;12.02;;;;;;;12.85;99.62;100945.09;5069473;28;20024;-69
2022/06/09 04:02:59;;;;;;;30.88;11.70;;;;;;;12.85;99.77;100945.09;5077510;28;20062;-70
2022/06/09 04:05:26;;;;;;;24.48;11.80;;;;;;;12.79;99.45;100935.22;5065196;28;20029;-70
2022/06/09 04:07:52;;;;;;;26.10;11.70;;;;;;;12.87;98.93;100953.59;5061772;28;20024;-70
2022/06/09 04:10:24;;;;;;;24.98;12.15;;;;;;;12.84;99.75;100953.84;5061870;28;20486;-69
2022/06/09 04:12:49;;;;;;;29.23;11.88;;;;;;;12.86;99.62;100957.97;5070739;28;20115;-70
2022/06/09 04:15:16;;;;;;;28.05;11.65;;;;;;;12.84;99.24;100951.25;5066095;28;20099;-70
2022/06/09 04:17:42;;;;;;;25.02;11.55;;;;;;;12.88;99.57;100955.22;5081703;28;20139;-70
2022/06/09 04:20:08;;;;;;;25.58;11.13;;;;;;;12.82;99.59;100950.56;5081723;28;20035;-70
2022/06/09 04:22:34;;;;;;;27.38;11.80;;;;;;;12.87;99.58;100958.81;5080946;28;20055;-70
2022/06/09 04:24:59;;;;;;;26.90;11.82;;;;;;;12.93;99.79;100966.06;5084320;28;20452;-70
2022/06/09 04:27:25;;;;;;;27.25;11.77;;;;;;;12.90;99.78;100958.50;5082326;28;20027;-70
2022/06/09 04:29:50;;;;;;;25.83;11.63;;;;;;;12.91;100.00;100976.63;5084542;28;20016;-70
2022/06/09 04:32:16;;;;;;;25.13;11.38;;;;;;;12.85;99.94;100968.53;5073867;28;20501;-70
2022/06/09 04:34:42;;;;;;;23.95;11.52;;;;;;;12.93;99.86;100973.88;5068875;28;20093;-70
2022/06/09 04:37:08;;;;;;;27.90;11.68;;;;;;;12.93;100.00;100979.06;5076499;28;20036;-70
2022/06/09 04:39:33;;;;;;;27.95;12.00;;;;;;;12.93;100.00;100973.88;5082766;28;20035;-70
2022/06/09 04:41:59;;;;;;;28.10;12.05;;;;;;;12.91;100.00;100991.41;5075059;28;20024;-70
2022/06/09 04:44:24;;;;;;;25.83;11.32;;;;;;;12.89;100.00;100977.69;5082806;28;20529;-70
2022/06/09 04:46:49;;;;;;;23.05;10.82;;;;;;;12.94;99.57;100985.94;5060022;28;20031;-69
2022/06/09 04:49:15;;;;;;;27.48;12.27;;;;;;;12.95;99.71;100984.97;5063665;28;20048;-71
2022/06/09 04:51:40;;;;;;;24.50;10.80;;;;;;;12.94;99.62;100991.13;5083613;28;20031;-70
2022/06/09 04:54:06;;;;;;;27.58;11.02;;;;;;;12.90;99.50;100994.94;5084794;28;20047;-70
2022/06/09 04:56:31;;;;;;;25.77;11.05;;;;;;;12.92;99.62;100990.47;5071384;28;20040;-70
2022/06/09 04:58:57;;;;;;;23.80;11.77;;;;;;;12.99;99.78;100994.16;5078292;28;20028;-70
2022/06/09 05:01:25;;;;;;;23.42;11.23;;;;;;;12.95;100.00;101005.78;5070497;28;20162;-69
2022/06/09 05:03:52;;;;;;;23.98;11.35;;;;;;;13.00;99.65;101021.81;5080393;28;20074;-70
2022/06/09 05:06:19;;;;;;;28.77;12.25;;;;;;;13.04;100.00;101015.41;5079525;28;20040;-71
2022/06/09 05:08:46;;;;;;;25.13;12.35;;;;;;;13.11;100.00;101013.88;5068662;28;20041;-70
2022/06/09 05:11:12;;;;;;;26.75;12.48;;;;;;;13.21;100.00;101024.34;5068301;28;20040;-69
2022/06/09 05:13:37;;;;;;;24.58;12.02;;;;;;;13.28;100.00;101026.25;5065145;28;20036;-70
2022/06/09 05:16:03;;;;;;;23.42;11.05;;;;;;;13.26;100.00;101028.19;5078190;28;20070;-70
2022/06/09 05:18:30;;;;;;;22.67;11.13;;;;;;;13.26;100.00;101029.97;5078328;28;20445;-70
2022/06/09 05:20:57;;;;;;;24.67;10.63;;;;;;;13.36;100.00;101040.38;5062187;28;20072;-70
2022/06/09 05:23:24;;;;;;;20.17;9.32;;;;;;;13.36;99.60;101037.75;5069030;28;20043;-70
2022/06/09 05:25:51;;;;;;;20.98;9.27;;;;;;;13.37;99.44;101044.63;5063687;28;20036;-70
2022/06/09 05:28:19;;;;;;;18.67;9.07;;;;;;;13.41;99.49;101048.59;5088108;28;20036;-70
2022/06/09 05:30:45;;;;;;;17.93;7.97;;;;;;;13.43;99.17;101054.50;5080206;28;20020;-70
2022/06/09 05:33:11;;;;;;;19.10;7.50;;;;;;;13.45;99.01;101057.78;5087196;28;20020;-70
2022/06/09 05:35:36;;;;;;;18.40;6.80;;;;;;;13.43;98.26;101059.72;5086717;28;20032;-70
2022/06/09 05:46:15;;;;;;;13.18;5.35;;;;;;;13.57;97.10;101077.53;5070840;28;20075;-70
2022/06/09 05:48:45;;;;;;;12.40;5.38;;;;;;;13.61;97.42;101078.91;5082386;28;20063;-70
2022/06/09 05:51:13;;;;;;;16.95;6.30;;;;;;;13.71;98.10;101090.16;5074462;28;20039;-70
2022/06/09 05:53:38;;;;;;;15.32;6.00;;;;;;;13.77;97.95;101086.97;5067452;28;20030;-70
2022/06/09 05:56:04;;;;;;;11.07;5.32;;;;;;;13.94;98.09;101097.66;5069188;28;20037;-70
2022/06/09 05:58:30;;;;;;;14.07;5.57;;;;;;;14.03;98.00;101089.81;5070994;28;20028;-69
2022/06/09 06:00:55;;;;;;;11.55;4.65;;;;;;;14.21;98.15;101096.88;5074128;28;20064;-68
2022/06/09 06:03:21;;;;;;;7.45;3.38;;;;;;;14.28;95.79;101121.47;5085439;28;20377;-67
2022/06/09 06:08:30;;;;;;;4.25;1.45;;;;;;;14.13;90.55;101105.44;5068635;28;20422;-71
2022/06/09 06:10:56;;;;;;;3.88;1.90;;;;;;;14.15;91.29;101113.94;5070262;28;20053;-69
2022/06/09 06:13:22;;;;;;;3.72;1.80;;;;;;;14.15;91.67;101113.09;5070620;28;20154;-69
2022/06/09 06:15:47;;;;;;;3.80;1.63;;;;;;;14.18;90.79;101116.28;5067943;28;20031;-68
2022/06/09 06:18:12;;;;;;;4.60;1.85;;;;;;;14.24;90.74;101123.53;5077779;28;20056;-69
2022/06/09 06:20:38;;;;;;;3.15;1.33;;;;;;;14.24;88.52;101123.53;5076647;28;20126;-70
2022/06/09 06:23:03;;;;;;;4.47;1.70;;;;;;;14.33;89.71;101124.44;5068750;28;20396;-68
2022/06/09 06:25:29;;;;;;;3.78;1.60;;;;;;;14.49;88.85;101136.94;5087033;28;20616;-68
2022/06/09 06:27:55;;;;;;;3.38;1.60;;;;;;;14.63;89.67;101141.72;5076999;28;20452;-69
2022/06/09 06:30:21;;;;;;;2.60;1.45;;;;;;;14.60;88.96;101134.16;5084293;28;20081;-69
2022/06/09 06:32:47;;;;;;;3.60;1.30;;;;;;;14.66;87.84;101144.00;5065302;28;20468;-69
2022/06/09 06:35:14;;;;;;;2.22;1.30;;;;;;;14.62;87.65;101142.66;5073917;28;20069;-68
2022/06/09 06:37:39;;;;;;;2.88;1.27;;;;;;;14.61;86.68;101151.44;5069073;28;20028;-68
2022/06/09 06:40:07;;;;;;;2.80;1.30;;;;;;;14.54;85.54;101153.00;5086001;28;20654;-69
2022/06/09 06:42:32;;;;;;;22.42;2.55;;;;;;;14.64;86.15;101169.44;5070082;28;20028;-72
2022/06/09 06:44:58;;;;;;;2.58;1.27;;;;;;;14.62;85.37;101179.19;5077181;28;20073;-69
2022/06/09 06:47:24;;;;;;;2.33;1.30;;;;;;;14.61;85.68;101182.78;5074028;28;20467;-70
2022/06/09 06:49:49;;;;;;;2.55;1.25;;;;;;;14.55;85.83;101178.13;5080701;28;20024;-70
2022/06/09 06:52:15;;;;;;;1.25;1.10;;;;;;;14.65;85.90;101178.91;5050072;28;20028;-69
2022/06/09 06:54:40;;;;;;;1.88;1.27;;;;;;;14.69;86.13;101185.50;5068178;28;20475;-71
2022/06/09 06:57:08;;;;;;;2.28;1.23;;;;;;;14.76;86.35;101189.19;5067115;28;20151;-70
2022/06/09 06:59:34;;;;;;;1.90;1.20;;;;;;;14.71;84.74;101193.19;5070393;28;20726;-69
2022/06/09 07:01:59;;;;;;;2.35;1.33;;;;;;;14.66;84.18;101204.06;5072231;28;20052;-70
2022/06/09 07:04:25;;;;;;;2.25;1.13;;;;;;;14.68;85.35;101194.31;5073215;28;20480;-69
2022/06/09 07:06:50;;;;;;;3.10;1.35;;;;;;;14.77;85.85;101213.50;5068514;28;20032;-70
2022/06/09 07:09:16;;;;;;;3.45;1.30;;;;;;;14.89;86.08;101217.59;5071997;28;20115;-71
2022/06/09 07:11:43;;;;;;;3.22;1.30;;;;;;;14.91;85.04;101218.28;5073756;28;20076;-70
2022/06/09 07:14:09;;;;;;;2.65;1.30;;;;;;;15.08;84.45;101227.13;5081732;28;20046;-70
2022/06/09 07:16:35;;;;;;;3.15;1.30;;;;;;;15.07;84.93;101230.69;5070009;28;20066;-70
2022/06/09 07:19:00;;;;;;;2.72;1.33;;;;;;;15.13;84.14;101230.13;5071267;28;20024;-70
2022/06/09 07:21:25;;;;;;;3.15;1.30;;;;;;;15.15;84.96;101225.59;5066924;28;20024;-70
2022/06/09 07:23:51;;;;;;;2.35;1.30;;;;;;;15.19;84.05;101229.53;5069357;28;20024;-73
2022/06/09 07:26:16;;;;;;;2.35;1.50;;;;;;;15.22;85.28;101223.22;5066190;28;20068;-70
2022/06/09 07:28:42;;;;;;;2.80;1.40;;;;;;;15.23;85.39;101232.69;5066722;28;20099;-70
2022/06/09 07:31:07;;;;;;;2.50;1.40;;;;;;;15.31;84.00;101232.78;5070228;28;20032;-74
2022/06/09 07:33:36;;;;;;;2.83;1.45;;;;;;;15.48;84.51;101244.25;5069858;28;20028;-70
2022/06/09 07:36:04;;;;;;;2.88;1.52;;;;;;;15.50;84.01;101243.16;5070999;28;20526;-70
2022/06/09 07:38:30;;;;;;;2.65;1.63;;;;;;;15.52;84.65;101237.75;5050613;28;20078;-71
2022/06/09 07:40:56;;;;;;;3.88;1.70;;;;;;;15.39;83.51;101235.50;5051983;28;20024;-70
2022/06/09 07:43:21;;;;;;;3.08;1.77;;;;;;;15.59;84.23;101251.88;5070503;28;20111;-72
2022/06/09 07:45:47;;;;;;;4.13;2.05;;;;;;;15.52;83.00;101238.56;5079237;28;20451;-72
2022/06/09 07:48:13;;;;;;;3.60;1.70;;;;;;;15.63;83.39;101242.81;5076462;28;20032;-70
2022/06/09 07:50:40;;;;;;;4.28;1.98;;;;;;;15.74;83.78;101245.22;5069133;28;20047;-69
2022/06/09 07:53:06;;;;;;;5.22;2.25;;;;;;;15.87;83.67;101244.84;5071329;28;20132;-69
2022/06/09 07:55:32;;;;;;;5.90;2.28;;;;;;;15.97;83.56;101235.13;5066559;28;20029;-69
2022/06/09 07:57:58;;;;;;;3.85;2.10;;;;;;;15.98;83.65;101234.16;5064627;28;20028;-70
2022/06/09 08:00:24;;;;;;;5.03;2.25;;;;;;;15.97;82.58;101250.81;5057082;28;20379;-70
2022/06/09 08:02:50;;;;;;;5.45;1.80;;;;;;;16.12;82.53;101243.28;5057756;28;20028;-70
2022/06/09 08:05:19;;;;;;;3.85;1.50;;;;;;;16.20;81.55;101240.72;5064971;28;20077;-70
2022/06/09 08:07:45;;;;;;;5.22;2.03;;;;;;;16.17;80.60;101239.25;5064887;28;20107;-69
2022/06/09 08:10:17;;;;;;;3.10;1.50;;;;;;;16.14;79.48;101236.09;5079429;28;20486;-69
2022/06/09 08:12:44;;;;;;;3.40;1.40;;;;;;;16.28;77.91;101240.78;5084230;28;20115;-70
2022/06/09 08:15:10;;;;;;;4.38;1.38;;;;;;;16.43;78.58;101249.72;5076354;28;20120;-69
2022/06/09 08:17:38;;;;;;;4.13;1.35;;;;;;;16.51;79.19;101250.75;5071070;28;20468;-69
2022/06/09 08:20:05;;;;;;;4.38;1.40;;;;;;;16.64;78.14;101253.81;5073966;28;20031;-70
2022/06/09 08:22:31;;;;;;;3.78;1.75;;;;;;;16.68;77.94;101249.88;5067262;28;20023;-70
2022/06/09 08:24:56;;;;;;;4.35;1.40;;;;;;;16.75;77.98;101271.91;5073549;28;20047;-69
2022/06/09 08:27:21;;;;;;;3.55;1.38;;;;;;;16.76;77.53;101263.06;5074181;28;20466;-69
2022/06/09 08:29:47;;;;;;;1.45;1.20;;;;;;;16.86;76.15;101273.44;5070454;28;20464;-70
2022/06/09 08:32:13;;;;;;;4.00;1.70;;;;;;;16.92;74.44;101278.91;5078074;28;20024;-69
2022/06/09 08:34:39;;;;;;;4.82;1.70;;;;;;;17.05;75.86;101282.88;5081870;28;20094;-71
2022/06/09 08:37:04;;;;;;;5.75;1.70;;;;;;;16.93;74.54;101280.53;5066852;28;20071;-69
2022/06/09 08:39:31;;;;;;;5.15;1.83;;;;;;;16.89;75.64;101294.91;5080810;28;20024;-72
2022/06/09 08:42:23;;;;;;;5.03;1.50;;;;;;;17.11;77.01;101304.03;5065382;28;20028;-69
2022/06/09 08:45:02;;;;;;;4.85;1.30;;;;;;;17.11;75.97;101314.53;5071171;28;20472;-69
2022/06/09 08:47:36;;;;;;;4.88;1.38;;;;;;;17.16;74.41;101322.75;5083716;28;20032;-69
2022/06/09 08:50:05;;;;;;;4.47;1.40;;;;;;;17.21;72.70;101330.16;5070905;28;20012;-68
2022/06/09 08:52:51;;;;;;;4.25;1.30;;;;;;;17.17;74.23;101334.06;5085853;28;20020;-69
2022/06/09 08:55:23;;;;;;;2.78;1.20;;;;;;;17.16;73.04;101348.97;5073809;28;20036;-68
2022/06/09 08:57:52;;;;;;;2.63;1.08;;;;;;;17.09;74.02;101350.56;5081054;28;20032;-69
2022/06/09 09:00:23;;;;;;;2.80;1.25;;;;;;;17.16;73.94;101358.63;5072938;28;20103;-68
2022/06/09 09:03:01;;;;;;;4.18;1.42;;;;;;;17.10;73.93;101354.00;5087879;28;20028;-68
2022/06/09 09:05:30;;;;;;;3.22;1.33;;;;;;;17.06;73.13;101353.47;5083896;28;20555;-68
2022/06/09 09:07:59;;;;;;;2.97;1.40;;;;;;;17.14;74.78;101350.06;5086538;28;20032;-69
2022/06/09 09:10:31;;;;;;;3.10;1.65;;;;;;;17.13;74.25;101345.81;5066540;28;20023;-68
2022/06/09 09:13:30;;;;;;;5.22;1.70;;;;;;;17.34;75.48;101362.00;5077981;28;20039;-70
2022/06/09 09:16:01;;;;;;;5.75;2.10;;;;;;;17.35;74.52;101357.56;5086503;28;20099;-69
2022/06/09 09:18:43;;;;;;;4.45;2.13;;;;;;;17.60;76.65;101371.63;5087716;28;20032;-68
2022/06/09 09:21:17;;;;;;;4.00;2.17;;;;;;;17.59;75.40;101370.78;5075997;28;20127;-68
2022/06/09 09:24:10;;;;;;;4.57;2.40;;;;;;;17.55;74.98;101379.97;5085378;28;20024;-68
2022/06/09 09:26:48;;;;;;;5.68;2.50;;;;;;;17.66;74.53;101371.81;5084318;28;20028;-68
2022/06/09 09:29:39;;;;;;;3.67;2.38;;;;;;;17.64;74.91;101381.63;5068078;28;20089;-68
2022/06/09 09:32:10;;;;;;;6.57;2.55;;;;;;;17.66;74.59;101387.56;5082805;28;20149;-68
2022/06/09 09:34:39;;;;;;;5.43;2.97;;;;;;;17.61;75.11;101375.91;5081894;28;20029;-68
2022/06/09 09:37:28;;;;;;;5.95;2.95;;;;;;;17.86;75.77;101384.72;5068892;28;20039;-68
2022/06/09 09:39:58;;;;;;;7.05;2.97;;;;;;;17.93;75.28;101390.97;5083542;28;20031;-68
2022/06/09 09:42:30;;;;;;;7.30;3.38;;;;;;;17.82;75.54;101391.25;5074391;28;20035;-68
2022/06/09 09:45:15;;;;;;;6.63;3.60;;;;;;;17.83;75.95;101382.38;5085835;28;20020;-69
2022/06/09 09:47:54;;;;;;;5.72;3.05;;;;;;;17.90;75.33;101389.50;5082232;28;20068;-68
2022/06/09 09:50:26;;;;;;;6.70;3.42;;;;;;;18.18;75.70;101404.97;5082136;28;20809;-68
2022/06/09 09:53:19;;;;;;;6.15;3.30;;;;;;;18.03;74.28;101397.72;5085993;28;20024;-68
2022/06/09 09:56:05;;;;;;;7.07;3.25;;;;;;;18.08;75.98;101396.44;5053587;28;20060;-67
2022/06/09 09:58:40;;;;;;;7.15;3.70;;;;;;;17.96;73.96;101409.84;5081447;28;20136;-68
2022/06/09 10:01:27;;;;;;;6.38;3.55;;;;;;;18.03;74.98;101421.34;5076569;28;20469;-68
2022/06/09 10:09:39;;;;;;;7.38;3.20;;;;;;;18.07;74.81;101421.03;5075665;28;20394;-68
2022/06/09 10:12:18;;;;;;;8.60;3.42;;;;;;;17.96;73.00;101415.09;5071749;28;20044;-67
2022/06/09 10:14:47;;;;;;;7.78;3.35;;;;;;;18.03;73.40;101431.03;5076294;28;20490;-67
2022/06/09 10:17:28;;;;;;;8.68;3.70;;;;;;;18.09;74.44;101429.56;5067511;28;20027;-68
2022/06/09 10:20:13;;;;;;;7.57;3.35;;;;;;;18.20;73.13;101431.91;5076225;28;20111;-68
2022/06/09 10:22:41;;;;;;;6.00;2.78;;;;;;;18.15;68.12;101431.56;5084567;28;20111;-68
2022/06/09 10:25:26;;;;;;;8.27;2.70;;;;;;;18.14;71.33;101435.16;5077507;28;20472;-68
2022/06/09 10:27:59;;;;;;;7.90;3.15;;;;;;;17.97;69.76;101437.72;5084631;28;20031;-68
2022/06/09 10:30:39;;;;;;;7.65;3.30;;;;;;;18.50;72.21;101439.19;5079131;28;20059;-68
2022/06/09 10:33:29;;;;;;;8.43;3.50;;;;;;;18.53;71.15;101444.13;5085651;28;20036;-67
2022/06/09 10:36:19;;;;;;;7.38;3.80;;;;;;;18.54;71.53;101442.31;5084998;28;20076;-68
2022/06/09 10:38:59;;;;;;;7.97;3.70;;;;;;;18.60;71.64;101459.22;5076634;28;20036;-69
2022/06/09 10:41:47;;;;;;;8.02;4.45;;;;;;;18.68;71.59;101456.63;5075935;28;20411;-67
2022/06/09 10:44:32;;;;;;;10.73;3.78;;;;;;;18.44;69.90;101463.47;5083283;28;20028;-70
2022/06/09 10:56:01;;;;;;;6.78;3.30;;;;;;;18.05;71.56;101469.25;5076530;28;20039;-68
2022/06/09 10:58:33;;;;;;;7.45;2.70;;;;;;;17.95;69.92;101471.19;5079808;28;20025;-68
2022/06/09 11:00:59;;;;;;;7.85;2.72;;;;;;;17.83;67.60;101472.44;5071671;28;20044;-68
2022/06/09 11:03:46;;;;;;;7.97;2.72;;;;;;;17.83;70.55;101477.69;5085351;28;20405;-68
2022/06/09 11:06:23;;;;;;;7.97;2.40;;;;;;;17.83;70.99;101472.44;5067723;28;20032;-72
2022/06/09 11:09:21;;;;;;;7.40;2.43;;;;;;;17.96;70.87;101477.28;5080174;28;20368;-67
2022/06/09 11:12:08;;;;;;;9.27;2.53;;;;;;;17.90;69.58;101478.72;5043488;28;20514;-68
2022/06/09 11:14:45;;;;;;;6.85;2.70;;;;;;;17.94;66.69;101477.41;5059174;28;20032;-69
2022/06/09 11:17:19;;;;;;;8.13;2.75;;;;;;;18.04;67.15;101479.91;5050609;28;20027;-68
2022/06/09 11:20:17;;;;;;;9.63;3.10;;;;;;;18.20;68.50;101479.16;5064987;28;20448;-68
2022/06/09 11:22:48;;;;;;;9.57;2.63;;;;;;;18.32;68.59;101483.13;5048592;28;20285;-69
2022/06/09 11:25:44;;;;;;;9.60;2.97;;;;;;;18.14;67.42;101471.91;5054310;28;20050;-69
2022/06/09 11:28:31;;;;;;;8.00;2.17;;;;;;;18.16;64.92;101485.69;5060344;28;20149;-69
2022/06/09 11:31:11;;;;;;;5.75;1.77;;;;;;;18.19;62.95;101482.78;5060117;28;20840;-68
2022/06/09 11:33:58;;;;;;;6.60;1.73;;;;;;;18.16;64.16;101483.06;5065750;28;20032;-69
2022/06/09 11:36:35;;;;;;;7.53;1.92;;;;;;;18.35;62.67;101474.94;5063848;28;20024;-68
2022/06/09 11:39:25;;;;;;;7.18;1.95;;;;;;;18.36;60.96;101484.47;5063032;28;20521;-69
2022/06/09 11:42:05;;;;;;;6.57;1.77;;;;;;;18.36;61.22;101488.91;5078733;28;20039;-70
2022/06/09 11:44:35;;;;;;;6.95;1.90;;;;;;;18.27;59.27;101490.66;5064310;28;20067;-68
2022/06/09 11:47:09;;;;;;;8.35;2.08;;;;;;;18.37;59.70;101491.38;5066067;28;20112;-68
2022/06/09 11:49:41;;;;;;;8.02;1.90;;;;;;;18.39;60.98;101476.25;5063916;28;20040;-70
2022/06/09 11:52:10;;;;;;;7.68;2.22;;;;;;;18.54;60.30;101492.22;5065100;28;20055;-68
2022/06/09 11:54:55;;;;;;;6.10;1.80;;;;;;;18.67;60.05;101491.75;5062194;28;20032;-68
2022/06/09 11:57:21;;;;;;;7.15;1.90;;;;;;;18.80;58.37;101489.50;5049360;28;20045;-68
2022/06/09 12:00:22;;;;;;;7.45;1.90;;;;;;;18.96;61.03;101513.16;5048830;28;20040;-68